createdAt,value
2023-04-07T00:00:24.731Z,9.32
2023-04-07T00:02:51.904Z,9.32
2023-04-07T00:05:18.624Z,9.29
2023-04-07T00:07:55.937Z,9.27
2023-04-07T00:10:23.189Z,9.26
2023-04-07T00:12:49.620Z,9.27
2023-04-07T00:15:16.153Z,9.27
2023-04-07T00:17:42.638Z,9.27
2023-04-07T00:20:09.171Z,9.26
2023-04-07T00:22:35.648Z,9.26
2023-04-07T00:25:02.068Z,9.28
2023-04-07T00:27:28.509Z,9.25
2023-04-07T00:29:57.665Z,9.24
2023-04-07T00:32:24.069Z,9.23
2023-04-07T00:34:50.631Z,9.28
2023-04-07T00:37:17.058Z,9.30
2023-04-07T00:39:43.474Z,9.30
2023-04-07T00:42:10.333Z,9.33
2023-04-07T00:44:36.782Z,9.36
2023-04-07T00:47:03.253Z,9.37
2023-04-07T00:49:29.738Z,9.40
2023-04-07T00:51:56.708Z,9.39
2023-04-07T00:54:26.130Z,9.39
2023-04-07T00:56:52.889Z,9.36
2023-04-07T00:59:19.484Z,9.40
2023-04-07T01:02:04.708Z,9.43
2023-04-07T01:04:57.481Z,9.48
2023-04-07T01:07:24.956Z,9.49
2023-04-07T01:09:55.418Z,9.49
2023-04-07T01:12:28.322Z,9.48
2023-04-07T01:14:55.876Z,9.46
2023-04-07T01:17:22.866Z,9.44
2023-04-07T01:19:53.500Z,9.44
2023-04-07T01:22:22.200Z,9.44
2023-04-07T01:25:04.096Z,9.43
2023-04-07T01:27:37.107Z,9.40
2023-04-07T01:30:03.673Z,9.39
2023-04-07T01:32:31.031Z,9.39
2023-04-07T01:34:57.694Z,9.36
2023-04-07T01:37:24.616Z,9.38
2023-04-07T01:39:51.200Z,9.37
2023-04-07T01:42:17.626Z,9.37
2023-04-07T01:44:44.081Z,9.34
2023-04-07T01:47:10.732Z,9.32
2023-04-07T01:49:37.183Z,9.30
2023-04-07T01:52:03.625Z,9.25
2023-04-07T01:54:30.111Z,9.22
2023-04-07T01:56:56.718Z,9.20
2023-04-07T01:59:23.202Z,9.17
2023-04-07T02:01:49.741Z,9.14
2023-04-07T02:04:19.858Z,9.10
2023-04-07T02:06:53.593Z,9.08
2023-04-07T02:09:20.706Z,9.07
2023-04-07T02:11:47.136Z,9.06
2023-04-07T02:14:13.657Z,9.05
2023-04-07T02:16:40.090Z,9.04
2023-04-07T02:19:06.544Z,9.02
2023-04-07T02:21:33.736Z,9.03
2023-04-07T02:24:06.444Z,9.01
2023-04-07T02:26:35.412Z,9.02
2023-04-07T02:29:02.825Z,8.99
2023-04-07T02:31:29.244Z,8.95
2023-04-07T02:33:56.042Z,8.94
2023-04-07T02:36:22.561Z,8.96
2023-04-07T02:38:49.100Z,8.95
2023-04-07T02:41:15.685Z,8.92
2023-04-07T02:43:42.085Z,8.92
2023-04-07T02:46:08.647Z,8.93
2023-04-07T02:48:35.359Z,8.94
2023-04-07T02:51:01.757Z,8.97
2023-04-07T02:53:28.193Z,8.98
2023-04-07T02:55:54.626Z,9.01
2023-04-07T02:58:21.054Z,9.02
2023-04-07T03:00:49.600Z,9.01
2023-04-07T03:03:16.976Z,9.02
2023-04-07T03:05:43.570Z,9.05
2023-04-07T03:08:11.645Z,9.04
2023-04-07T03:10:39.318Z,9.03
2023-04-07T03:13:06.195Z,9.04
2023-04-07T03:15:32.636Z,9.07
2023-04-07T03:17:59.074Z,9.10
2023-04-07T03:20:25.537Z,9.11
2023-04-07T03:22:51.998Z,9.12
2023-04-07T03:25:18.402Z,9.16
2023-04-07T03:27:45.027Z,9.21
2023-04-07T03:30:11.869Z,9.25
2023-04-07T03:32:38.333Z,9.26
2023-04-07T03:35:04.952Z,9.30
2023-04-07T03:37:31.353Z,9.34
2023-04-07T03:39:57.816Z,9.35
2023-04-07T03:42:24.274Z,9.38
2023-04-07T03:44:50.646Z,9.35
2023-04-07T03:47:17.068Z,9.32
2023-04-07T03:49:43.509Z,9.30
2023-04-07T03:52:09.966Z,9.28
2023-04-07T03:54:36.571Z,9.30
2023-04-07T03:57:03.034Z,9.30
2023-04-07T03:59:29.438Z,9.31
2023-04-07T04:01:56.018Z,9.32
2023-04-07T04:04:24.438Z,9.32
2023-04-07T04:06:51.150Z,9.31
2023-04-07T04:09:19.004Z,9.32
2023-04-07T04:11:45.458Z,9.33
2023-04-07T04:14:12.411Z,9.34
2023-04-07T04:16:38.758Z,9.37
2023-04-07T04:19:05.164Z,9.40
2023-04-07T04:21:31.944Z,9.43
2023-04-07T04:23:58.402Z,9.42
2023-04-07T04:26:26.147Z,9.40
2023-04-07T04:28:53.068Z,9.38
2023-04-07T04:31:19.614Z,9.39
2023-04-07T04:33:46.283Z,9.40
2023-04-07T04:36:12.750Z,9.39
2023-04-07T04:38:39.174Z,9.37
2023-04-07T04:41:05.721Z,9.39
2023-04-07T04:43:32.156Z,9.38
2023-04-07T04:45:58.905Z,9.38
2023-04-07T04:48:25.780Z,9.38
2023-04-07T04:50:52.227Z,9.37
2023-04-07T04:53:18.649Z,9.37
2023-04-07T04:55:47.236Z,9.36
2023-04-07T04:58:13.717Z,9.38
2023-04-07T05:00:41.267Z,9.38
2023-04-07T05:03:07.965Z,9.40
2023-04-07T05:05:34.598Z,9.43
2023-04-07T05:08:01.126Z,9.43
2023-04-07T05:10:27.572Z,9.46
2023-04-07T05:12:54.091Z,9.49
2023-04-07T05:15:20.536Z,9.50
2023-04-07T05:17:50.581Z,9.51
2023-04-07T05:20:17.530Z,9.51
2023-04-07T05:22:43.928Z,9.52
2023-04-07T05:25:10.827Z,9.54
2023-04-07T05:27:37.258Z,9.57
2023-04-07T05:30:03.902Z,9.58
2023-04-07T05:32:30.558Z,9.60
2023-04-07T05:34:57.083Z,9.64
2023-04-07T05:37:23.558Z,9.66
2023-04-07T05:39:50.031Z,9.67
2023-04-07T05:42:16.394Z,9.72
2023-04-07T05:44:42.850Z,9.77
2023-04-07T05:47:09.294Z,9.81
2023-04-07T05:49:35.817Z,9.86
2023-04-07T05:52:03.541Z,9.89
2023-04-07T05:54:30.070Z,9.90
2023-04-07T05:56:56.469Z,9.89
2023-04-07T05:59:22.918Z,9.92
2023-04-07T06:01:49.667Z,9.96
2023-04-07T06:04:16.150Z,10.03
2023-04-07T06:06:42.647Z,10.05
2023-04-07T06:09:09.100Z,10.08
2023-04-07T06:11:35.496Z,10.12
2023-04-07T06:14:04.268Z,10.17
2023-04-07T06:16:30.807Z,10.22
2023-04-07T06:18:57.172Z,10.27
2023-04-07T06:21:24.069Z,10.32
2023-04-07T06:23:50.898Z,10.35
2023-04-07T06:26:17.535Z,10.40
2023-04-07T06:28:43.932Z,10.43
2023-04-07T06:31:11.011Z,10.47
2023-04-07T06:33:38.488Z,10.50
2023-04-07T06:36:04.956Z,10.52
2023-04-07T06:38:31.688Z,10.54
2023-04-07T06:40:58.108Z,10.53
2023-04-07T06:43:24.735Z,10.57
2023-04-07T06:45:51.260Z,10.61
2023-04-07T06:48:17.757Z,10.62
2023-04-07T06:50:47.561Z,10.64
2023-04-07T06:53:14.174Z,10.71
2023-04-07T06:55:40.929Z,10.73
2023-04-07T06:58:07.408Z,10.79
2023-04-07T07:00:33.755Z,10.83
2023-04-07T07:03:00.500Z,10.90
2023-04-07T07:05:27.139Z,10.95
2023-04-07T07:07:53.566Z,11.00
2023-04-07T07:10:22.791Z,11.02
2023-04-07T07:12:49.800Z,11.02
2023-04-07T07:15:16.272Z,11.05
2023-04-07T07:17:42.937Z,11.04
2023-04-07T07:20:09.745Z,11.03
2023-04-07T07:22:36.368Z,11.01
2023-04-07T07:25:03.337Z,11.01
2023-04-07T07:27:29.735Z,11.00
2023-04-07T07:29:56.514Z,11.03
2023-04-07T07:32:22.961Z,11.06
2023-04-07T07:34:49.929Z,11.08
2023-04-07T07:37:16.577Z,11.11
2023-04-07T07:39:42.951Z,11.11
2023-04-07T07:42:09.398Z,11.12
2023-04-07T07:44:36.076Z,11.11
2023-04-07T07:47:02.534Z,11.11
2023-04-07T07:49:28.970Z,11.08
2023-04-07T07:51:55.933Z,11.03
2023-04-07T07:54:22.332Z,11.00
2023-04-07T07:56:48.730Z,11.04
2023-04-07T07:59:16.613Z,11.08
2023-04-07T08:01:44.180Z,11.11
2023-04-07T08:04:11.071Z,11.11
2023-04-07T08:06:37.686Z,11.08
2023-04-07T08:09:04.258Z,11.07
2023-04-07T08:11:30.868Z,11.07
2023-04-07T08:13:57.212Z,11.07
2023-04-07T08:16:24.138Z,11.10
2023-04-07T08:18:50.692Z,11.14
2023-04-07T08:21:17.099Z,11.17
2023-04-07T08:23:43.630Z,11.17
2023-04-07T08:26:10.215Z,11.19
2023-04-07T08:28:36.624Z,11.22
2023-04-07T08:31:03.240Z,11.20
2023-04-07T08:33:29.944Z,11.24
2023-04-07T08:35:56.813Z,11.26
2023-04-07T08:38:23.407Z,11.26
2023-04-07T08:40:50.827Z,11.25
2023-04-07T08:43:18.019Z,11.27
2023-04-07T08:45:44.428Z,11.30
2023-04-07T08:48:17.831Z,11.29
2023-04-07T08:50:44.639Z,11.28
2023-04-07T08:53:11.023Z,11.27
2023-04-07T08:55:37.666Z,11.27
2023-04-07T08:58:04.124Z,11.29
2023-04-07T09:00:30.524Z,11.31
2023-04-07T09:02:57.009Z,11.38
2023-04-07T09:05:25.029Z,11.44
2023-04-07T09:07:51.428Z,11.55
2023-04-07T09:10:17.923Z,11.68
2023-04-07T09:12:44.274Z,11.83
2023-04-07T09:15:10.774Z,11.96
2023-04-07T09:17:37.229Z,12.10
2023-04-07T09:20:04.789Z,12.23
2023-04-07T09:22:35.020Z,12.38
2023-04-07T09:25:14.311Z,12.52
2023-04-07T09:27:40.985Z,12.68
2023-04-07T09:30:14.973Z,12.84
2023-04-07T09:32:41.669Z,13.01
2023-04-07T09:35:08.421Z,13.12
2023-04-07T09:37:34.877Z,13.22
2023-04-07T09:40:01.846Z,13.27
2023-04-07T09:42:32.386Z,13.27
2023-04-07T09:44:59.546Z,13.34
2023-04-07T09:47:27.735Z,13.41
2023-04-07T09:49:55.042Z,13.52
2023-04-07T09:52:41.708Z,13.67
2023-04-07T09:55:08.178Z,13.77
2023-04-07T09:57:36.951Z,13.89
2023-04-07T10:00:03.564Z,14.01
2023-04-07T10:02:30.241Z,14.10
2023-04-07T10:04:56.719Z,14.19
2023-04-07T10:07:23.150Z,14.28
2023-04-07T10:09:50.650Z,14.36
2023-04-07T10:12:18.367Z,14.49
2023-04-07T10:14:49.440Z,14.59
2023-04-07T10:17:18.788Z,14.68
2023-04-07T10:19:45.963Z,14.75
2023-04-07T10:22:12.849Z,14.80
2023-04-07T10:24:39.368Z,14.78
2023-04-07T10:27:11.773Z,14.81
2023-04-07T10:29:39.953Z,14.84
2023-04-07T10:32:06.887Z,14.85
2023-04-07T10:34:53.666Z,14.90
2023-04-07T10:37:22.350Z,14.99
2023-04-07T10:39:49.236Z,15.13
2023-04-07T10:42:34.555Z,15.27
2023-04-07T10:45:01.281Z,15.38
2023-04-07T10:47:29.203Z,15.50
2023-04-07T10:50:13.930Z,15.63
2023-04-07T10:52:40.522Z,15.74
2023-04-07T10:55:28.167Z,15.81
2023-04-07T10:58:13.101Z,15.86
2023-04-07T11:00:40.220Z,15.90
2023-04-07T11:03:13.598Z,15.90
2023-04-07T11:05:40.856Z,15.94
2023-04-07T11:08:07.928Z,15.99
2023-04-07T11:10:35.073Z,16.00
2023-04-07T11:13:02.407Z,16.00
2023-04-07T11:15:30.462Z,15.98
2023-04-07T11:18:06.345Z,16.00
2023-04-07T11:20:40.864Z,16.02
2023-04-07T11:23:07.537Z,16.05
2023-04-07T11:25:35.523Z,16.09
2023-04-07T11:28:03.479Z,16.10
2023-04-07T11:30:29.944Z,16.09
2023-04-07T11:32:56.698Z,15.98
2023-04-07T11:35:23.616Z,15.90
2023-04-07T11:37:50.195Z,15.90
2023-04-07T11:40:32.215Z,15.90
2023-04-07T11:42:58.599Z,15.93
2023-04-07T11:45:25.087Z,15.95
2023-04-07T11:47:51.680Z,15.97
2023-04-07T11:50:18.225Z,15.98
2023-04-07T11:52:45.897Z,15.99
2023-04-07T11:55:24.470Z,15.99
2023-04-07T11:57:53.861Z,15.99
2023-04-07T12:00:20.447Z,15.97
2023-04-07T12:02:47.259Z,15.97
2023-04-07T12:05:13.854Z,15.96
2023-04-07T12:07:42.102Z,15.95
2023-04-07T12:10:21.126Z,15.93
2023-04-07T12:12:48.012Z,15.90
2023-04-07T12:15:14.651Z,15.89
2023-04-07T12:17:48.062Z,15.93
2023-04-07T12:20:15.114Z,15.94
2023-04-07T12:22:41.655Z,15.95
2023-04-07T12:25:08.252Z,15.96
2023-04-07T12:27:42.795Z,15.96
2023-04-07T12:30:10.294Z,15.95
2023-04-07T12:32:37.893Z,15.93
2023-04-07T12:35:05.388Z,15.92
2023-04-07T12:37:32.874Z,15.94
2023-04-07T12:39:59.971Z,15.96
2023-04-07T12:42:27.243Z,16.00
2023-04-07T12:44:53.715Z,16.00
2023-04-07T12:47:22.020Z,16.01
2023-04-07T12:49:49.865Z,16.02
2023-04-07T12:52:16.923Z,16.07
2023-04-07T12:54:44.568Z,16.07
2023-04-07T12:57:11.363Z,16.08
2023-04-07T12:59:37.761Z,16.13
2023-04-07T13:02:04.440Z,16.17
2023-04-07T13:04:31.573Z,16.17
2023-04-07T13:06:58.332Z,16.14
2023-04-07T13:09:25.526Z,16.07
2023-04-07T13:11:52.057Z,16.03
2023-04-07T13:14:18.521Z,16.02
2023-04-07T13:16:45.036Z,16.02
2023-04-07T13:19:11.545Z,16.06
2023-04-07T13:24:07.539Z,16.17
2023-04-07T13:26:34.627Z,16.15
2023-04-07T13:29:01.243Z,16.12
2023-04-07T13:31:28.488Z,16.12
2023-04-07T13:33:54.902Z,16.10
2023-04-07T13:36:23.283Z,16.05
2023-04-07T13:38:51.250Z,16.01
2023-04-07T13:41:17.671Z,15.97
2023-04-07T13:43:44.079Z,15.91
2023-04-07T13:48:46.869Z,15.81
2023-04-07T13:51:13.328Z,15.73
2023-04-07T13:53:39.759Z,15.49
2023-04-07T13:56:08.565Z,14.88
2023-04-07T13:58:35.308Z,13.94
2023-04-07T14:01:01.912Z,13.12
2023-04-07T14:03:28.743Z,12.67
2023-04-07T14:05:55.496Z,12.46
2023-04-07T14:08:23.635Z,12.25
2023-04-07T14:10:50.127Z,12.06
2023-04-07T14:13:16.814Z,11.97
2023-04-07T14:15:43.235Z,11.74
2023-04-07T14:18:09.753Z,11.49
2023-04-07T14:20:36.821Z,11.37
2023-04-07T14:23:03.274Z,11.35
2023-04-07T14:25:29.681Z,11.26
2023-04-07T14:27:56.089Z,11.28
2023-04-07T14:30:22.513Z,11.26
2023-04-07T14:32:49.073Z,11.21
2023-04-07T14:35:15.703Z,11.10
2023-04-07T14:37:42.066Z,11.11
2023-04-07T14:40:08.907Z,11.11
2023-04-07T14:42:35.813Z,11.03
2023-04-07T14:45:02.272Z,11.02
2023-04-07T14:47:28.694Z,11.05
2023-04-07T14:49:55.462Z,11.01
2023-04-07T14:52:22.219Z,11.09
2023-04-07T14:54:48.714Z,11.13
2023-04-07T14:57:15.294Z,11.18
2023-04-07T14:59:41.785Z,11.22
2023-04-07T15:02:08.334Z,11.21
2023-04-07T15:04:35.246Z,11.18
2023-04-07T15:07:01.755Z,11.18
2023-04-07T15:09:28.205Z,11.18
2023-04-07T15:11:56.600Z,11.09
2023-04-07T15:14:23.045Z,11.06
2023-04-07T15:16:50.501Z,11.04
2023-04-07T15:19:16.992Z,11.01
2023-04-07T15:21:43.431Z,10.93
2023-04-07T15:24:09.789Z,10.89
2023-04-07T15:26:36.187Z,10.90
2023-04-07T15:29:02.676Z,10.92
2023-04-07T15:31:30.005Z,10.90
2023-04-07T15:33:56.521Z,10.86
2023-04-07T15:36:22.954Z,10.86
2023-04-07T15:38:49.300Z,10.85
2023-04-07T15:41:19.076Z,10.87
2023-04-07T15:43:45.859Z,10.91
2023-04-07T15:46:12.385Z,10.95
2023-04-07T15:48:38.798Z,10.96
2023-04-07T15:51:05.308Z,10.93
2023-04-07T15:53:31.721Z,10.91
2023-04-07T15:55:58.313Z,10.89
2023-04-07T15:58:24.774Z,10.89
2023-04-07T16:00:51.209Z,10.89
2023-04-07T16:03:17.923Z,10.82
2023-04-07T16:05:44.549Z,10.80
2023-04-07T16:08:13.242Z,10.75
2023-04-07T16:10:40.694Z,10.72
2023-04-07T16:13:07.107Z,10.69
2023-04-07T16:15:40.126Z,10.75
2023-04-07T16:18:10.034Z,10.76
2023-04-07T16:20:36.670Z,10.74
2023-04-07T16:23:03.120Z,10.72
2023-04-07T16:25:29.726Z,10.69
2023-04-07T16:27:58.477Z,10.67
2023-04-07T16:30:25.301Z,10.70
2023-04-07T16:32:51.955Z,10.73
2023-04-07T16:35:18.538Z,10.72
2023-04-07T16:37:46.634Z,10.73
2023-04-07T16:40:13.476Z,10.74
2023-04-07T16:42:39.948Z,10.73
2023-04-07T16:45:06.909Z,10.74
2023-04-07T16:47:33.743Z,10.80
2023-04-07T16:50:00.303Z,10.82
2023-04-07T16:52:28.008Z,10.81
2023-04-07T16:54:54.493Z,10.78
2023-04-07T16:57:20.943Z,10.75
2023-04-07T16:59:48.416Z,10.75
2023-04-07T17:02:16.683Z,10.76
2023-04-07T17:04:44.638Z,10.76
2023-04-07T17:07:11.310Z,10.78
2023-04-07T17:09:40.531Z,10.77
2023-04-07T17:12:07.030Z,10.79
2023-04-07T17:14:33.775Z,10.75
2023-04-07T17:17:00.345Z,10.73
2023-04-07T17:19:27.244Z,10.74
2023-04-07T17:21:53.709Z,10.76
2023-04-07T17:24:20.389Z,10.77
2023-04-07T17:26:47.981Z,10.74
2023-04-07T17:29:14.706Z,10.73
2023-04-07T17:31:41.256Z,10.72
2023-04-07T17:34:07.883Z,10.75
2023-04-07T17:36:34.349Z,10.79
2023-04-07T17:39:01.190Z,10.80
2023-04-07T17:41:28.409Z,10.84
2023-04-07T17:43:54.958Z,10.86
2023-04-07T17:46:21.937Z,10.85
2023-04-07T17:48:49.150Z,10.81
2023-04-07T17:51:15.620Z,10.74
2023-04-07T17:53:42.194Z,10.73
2023-04-07T17:56:08.732Z,10.73
2023-04-07T17:58:35.221Z,10.74
2023-04-07T18:01:02.936Z,10.74
2023-04-07T18:03:29.735Z,10.73
2023-04-07T18:05:56.548Z,10.74
2023-04-07T18:08:22.976Z,10.72
2023-04-07T18:10:49.466Z,10.74
2023-04-07T18:13:15.968Z,10.75
2023-04-07T18:15:44.086Z,10.77
2023-04-07T18:18:10.519Z,10.78
2023-04-07T18:20:37.814Z,10.83
2023-04-07T18:23:05.094Z,10.90
2023-04-07T18:25:31.516Z,10.96
2023-04-07T18:27:58.792Z,10.92
2023-04-07T18:30:25.261Z,10.91
2023-04-07T18:32:51.703Z,10.93
2023-04-07T18:35:18.172Z,10.91
2023-04-07T18:37:44.584Z,10.91
2023-04-07T18:40:12.398Z,10.95
2023-04-07T18:42:38.906Z,10.98
2023-04-07T18:45:06.299Z,10.99
2023-04-07T18:47:33.321Z,10.95
2023-04-07T18:49:59.772Z,10.96
2023-04-07T18:52:26.544Z,11.00
2023-04-07T18:54:53.160Z,11.04
2023-04-07T18:57:19.573Z,11.05
2023-04-07T18:59:46.002Z,11.02
2023-04-07T19:02:12.579Z,11.01
2023-04-07T19:04:39.724Z,10.95
2023-04-07T19:07:07.124Z,10.93
2023-04-07T19:09:35.709Z,10.97
2023-04-07T19:12:02.239Z,10.98
2023-04-07T19:14:28.631Z,11.01
2023-04-07T19:16:55.091Z,10.99
2023-04-07T19:19:24.493Z,10.93
2023-04-07T19:21:51.202Z,10.87
2023-04-07T19:24:17.608Z,10.80
2023-04-07T19:26:44.888Z,10.74
2023-04-07T19:29:12.585Z,10.71
2023-04-07T19:31:40.325Z,10.67
2023-04-07T19:34:07.014Z,10.65
2023-04-07T19:36:33.511Z,10.63
2023-04-07T19:38:59.952Z,10.61
2023-04-07T19:41:28.198Z,10.61
2023-04-07T19:43:54.799Z,10.58
2023-04-07T19:46:22.438Z,10.57
2023-04-07T19:48:48.934Z,10.58
2023-04-07T19:51:15.457Z,10.58
2023-04-07T19:53:42.138Z,10.60
2023-04-07T19:56:10.976Z,10.58
2023-04-07T19:58:38.527Z,10.53
2023-04-07T20:01:05.056Z,10.52
2023-04-07T20:03:32.050Z,10.53
2023-04-07T20:06:00.174Z,10.54
2023-04-07T20:08:28.158Z,10.52
2023-04-07T20:10:54.587Z,10.49
2023-04-07T20:13:21.232Z,10.45
2023-04-07T20:15:49.114Z,10.44
2023-04-07T20:18:18.470Z,10.43
2023-04-07T20:20:45.845Z,10.44
2023-04-07T20:23:12.859Z,10.51
2023-04-07T20:25:39.609Z,10.60
2023-04-07T20:28:06.185Z,10.67
2023-04-07T20:30:32.702Z,10.71
2023-04-07T20:33:01.572Z,10.77
2023-04-07T20:35:28.068Z,10.82
2023-04-07T20:37:54.541Z,10.85
2023-04-07T20:40:20.955Z,10.91
2023-04-07T20:42:48.299Z,10.94
2023-04-07T20:45:14.765Z,10.98
2023-04-07T20:47:41.579Z,10.97
2023-04-07T20:50:08.568Z,10.94
2023-04-07T20:52:40.135Z,10.89
2023-04-07T20:55:07.205Z,10.80
2023-04-07T20:57:33.582Z,10.71
2023-04-07T21:00:00.442Z,10.69
2023-04-07T21:02:27.010Z,10.65
2023-04-07T21:04:53.587Z,10.63
2023-04-07T21:07:19.990Z,10.57
2023-04-07T21:09:46.511Z,10.54
2023-04-07T21:12:14.455Z,10.51
2023-04-07T21:14:40.909Z,10.51
2023-04-07T21:17:08.409Z,10.55
2023-04-07T21:19:34.876Z,10.58
2023-04-07T21:22:04.960Z,10.59
2023-04-07T21:24:32.095Z,10.55
2023-04-07T21:26:58.475Z,10.48
2023-04-07T21:29:29.938Z,10.44
2023-04-07T21:31:56.401Z,10.41
2023-04-07T21:34:22.821Z,10.40
2023-04-07T21:36:49.252Z,10.40
2023-04-07T21:39:15.674Z,10.43
2023-04-07T21:41:42.447Z,10.47
2023-04-07T21:44:09.402Z,10.52
2023-04-07T21:46:37.914Z,10.54
2023-04-07T21:49:04.625Z,10.54
2023-04-07T21:51:31.092Z,10.59
2023-04-07T21:53:57.525Z,10.61
2023-04-07T21:56:23.979Z,10.65
2023-04-07T21:58:50.772Z,10.71
2023-04-07T22:01:18.329Z,10.74
2023-04-07T22:03:45.852Z,10.78
2023-04-07T22:06:12.399Z,10.81
2023-04-07T22:08:40.000Z,10.85
2023-04-07T22:11:07.732Z,10.90
2023-04-07T22:13:34.982Z,10.91
2023-04-07T22:16:02.300Z,10.92
2023-04-07T22:18:29.043Z,10.94
2023-04-07T22:20:55.715Z,10.97
2023-04-07T22:23:22.248Z,11.01
2023-04-07T22:25:49.306Z,11.01
2023-04-07T22:28:16.009Z,11.02
2023-04-07T22:30:42.421Z,11.05
2023-04-07T22:33:10.656Z,11.10
2023-04-07T22:35:37.843Z,11.16
2023-04-07T22:38:04.296Z,11.23
2023-04-07T22:40:31.034Z,11.25
2023-04-07T22:42:58.910Z,11.28
2023-04-07T22:45:25.448Z,11.29
2023-04-07T22:47:51.935Z,11.31
2023-04-07T22:50:18.345Z,11.31
2023-04-07T22:52:44.902Z,11.33
2023-04-07T22:55:11.561Z,11.32
2023-04-07T22:57:37.936Z,11.33
2023-04-07T23:00:04.717Z,11.35
2023-04-07T23:02:31.720Z,11.30
2023-04-07T23:04:58.268Z,11.29
2023-04-07T23:07:27.136Z,11.29
2023-04-07T23:09:53.879Z,11.31
2023-04-07T23:12:20.242Z,11.39
2023-04-07T23:14:46.645Z,11.46
2023-04-07T23:17:15.619Z,11.50
2023-04-07T23:19:42.223Z,11.53
2023-04-07T23:22:08.649Z,11.54
2023-04-07T23:24:37.705Z,11.56
2023-04-07T23:27:04.152Z,11.58
2023-04-07T23:29:30.730Z,11.61
2023-04-07T23:31:57.413Z,11.65
2023-04-07T23:34:23.964Z,11.68
2023-04-07T23:36:50.439Z,11.69
2023-04-07T23:39:16.854Z,11.70
2023-04-07T23:41:43.250Z,11.71
2023-04-07T23:44:09.646Z,11.73
2023-04-07T23:46:36.213Z,11.74
2023-04-07T23:49:03.868Z,11.74
2023-04-07T23:51:30.641Z,11.74
2023-04-07T23:53:59.402Z,11.76
2023-04-07T23:56:25.850Z,11.77
2023-04-07T23:58:52.248Z,11.77
